createdAt,value
2017-11-09T00:01:33.831Z,96.10
2017-11-09T00:04:06.278Z,96.40
2017-11-09T00:06:33.463Z,96.30
2017-11-09T00:08:59.929Z,96.20
2017-11-09T00:11:26.382Z,96.40
2017-11-09T00:13:52.821Z,96.10
2017-11-09T00:16:19.264Z,96.40
2017-11-09T00:18:46.449Z,97.00
2017-11-09T00:21:12.879Z,96.90
2017-11-09T00:23:39.280Z,96.90
2017-11-09T00:26:06.461Z,96.70
2017-11-09T00:28:32.896Z,96.60
2017-11-09T00:30:59.336Z,96.40
2017-11-09T00:33:25.761Z,96.60
2017-11-09T00:35:52.149Z,96.40
2017-11-09T00:38:18.593Z,96.20
2017-11-09T00:40:45.764Z,96.70
2017-11-09T00:43:12.193Z,96.70
2017-11-09T00:45:38.620Z,96.30
2017-11-09T00:48:06.471Z,96.70
2017-11-09T00:50:33.685Z,97.00
2017-11-09T00:53:00.084Z,96.90
2017-11-09T00:55:26.500Z,96.80
2017-11-09T00:57:53.651Z,96.80
2017-11-09T01:00:20.836Z,97.00
2017-11-09T01:02:47.281Z,97.00
2017-11-09T01:05:13.699Z,96.60
2017-11-09T01:07:40.230Z,96.40
2017-11-09T01:10:06.654Z,96.40
2017-11-09T01:12:33.076Z,96.20
2017-11-09T01:14:59.519Z,96.00
2017-11-09T01:17:25.996Z,96.10
2017-11-09T01:19:52.458Z,96.00
2017-11-09T01:22:19.597Z,96.20
2017-11-09T01:24:46.035Z,96.00
2017-11-09T01:27:12.445Z,95.90
2017-11-09T01:29:38.854Z,96.00
2017-11-09T01:32:05.309Z,95.90
2017-11-09T01:34:31.741Z,96.00
2017-11-09T01:36:58.166Z,96.20
2017-11-09T01:39:24.597Z,96.00
2017-11-09T01:41:51.057Z,95.70
2017-11-09T01:44:17.493Z,96.10
2017-11-09T01:46:43.907Z,96.10
2017-11-09T01:49:10.336Z,95.70
2017-11-09T01:51:36.795Z,95.60
2017-11-09T01:54:03.246Z,95.60
2017-11-09T01:56:30.389Z,95.60
2017-11-09T01:58:57.605Z,95.30
2017-11-09T02:01:24.055Z,95.20
2017-11-09T02:03:50.487Z,95.10
2017-11-09T02:06:16.944Z,95.20
2017-11-09T02:08:44.086Z,95.20
2017-11-09T02:11:10.502Z,95.20
2017-11-09T02:13:36.925Z,95.30
2017-11-09T02:16:03.386Z,95.10
2017-11-09T02:18:29.817Z,94.90
2017-11-09T02:20:56.317Z,94.90
2017-11-09T02:23:22.806Z,94.80
2017-11-09T02:25:49.293Z,94.90
2017-11-09T02:28:15.746Z,94.90
2017-11-09T02:30:42.225Z,95.50
2017-11-09T02:33:08.702Z,95.40
2017-11-09T02:35:35.893Z,95.40
2017-11-09T02:38:03.101Z,95.40
2017-11-09T02:40:29.552Z,95.40
2017-11-09T02:42:55.973Z,96.00
2017-11-09T02:45:22.475Z,95.80
2017-11-09T02:47:48.963Z,95.70
2017-11-09T02:50:16.225Z,95.40
2017-11-09T02:52:43.402Z,95.30
2017-11-09T02:55:09.893Z,95.20
2017-11-09T02:57:37.114Z,95.20
2017-11-09T03:00:03.597Z,95.20
2017-11-09T03:02:30.749Z,95.80
2017-11-09T03:04:57.921Z,95.70
2017-11-09T03:07:24.372Z,95.70
2017-11-09T03:09:50.838Z,95.70
2017-11-09T03:12:18.036Z,95.50
2017-11-09T03:14:44.492Z,95.40
2017-11-09T03:17:10.922Z,95.10
2017-11-09T03:19:37.434Z,95.00
2017-11-09T03:22:03.852Z,94.70
2017-11-09T03:24:31.125Z,94.80
2017-11-09T03:26:57.532Z,94.80
2017-11-09T03:29:24.699Z,94.90
2017-11-09T03:31:51.129Z,94.90
2017-11-09T03:34:17.521Z,94.50
2017-11-09T03:36:43.948Z,95.00
2017-11-09T03:39:10.356Z,94.90
2017-11-09T03:41:36.780Z,95.00
2017-11-09T03:44:03.249Z,95.00
2017-11-09T03:46:29.716Z,95.00
2017-11-09T03:48:56.869Z,95.20
2017-11-09T03:51:24.020Z,95.10
2017-11-09T03:53:51.191Z,95.30
2017-11-09T03:56:17.592Z,95.30
2017-11-09T03:58:44.773Z,95.80
2017-11-09T04:01:11.196Z,95.80
2017-11-09T04:03:37.604Z,95.90
2017-11-09T04:06:04.777Z,96.00
2017-11-09T04:08:31.198Z,96.00
2017-11-09T04:10:58.365Z,95.40
2017-11-09T04:13:24.788Z,95.40
2017-11-09T04:15:51.199Z,95.60
2017-11-09T04:18:17.600Z,96.00
2017-11-09T04:20:44.055Z,95.30
2017-11-09T04:23:10.477Z,95.50
2017-11-09T04:25:36.908Z,96.00
2017-11-09T04:28:03.311Z,96.40
2017-11-09T04:30:29.848Z,96.40
2017-11-09T04:32:56.245Z,96.00
2017-11-09T04:35:23.384Z,96.50
2017-11-09T04:37:50.556Z,97.10
2017-11-09T04:40:17.193Z,97.10
2017-11-09T04:42:44.368Z,96.50
2017-11-09T04:45:10.783Z,96.50
2017-11-09T04:47:37.226Z,96.80
2017-11-09T04:50:03.633Z,97.10
2017-11-09T04:52:30.804Z,97.00
2017-11-09T04:54:57.222Z,97.00
2017-11-09T04:57:23.632Z,97.00
2017-11-09T04:59:50.036Z,97.20
2017-11-09T05:02:16.553Z,96.30
2017-11-09T05:04:43.625Z,97.50
2017-11-09T05:07:10.027Z,97.30
2017-11-09T05:09:36.473Z,97.30
2017-11-09T05:12:02.905Z,97.20
2017-11-09T05:14:29.324Z,96.80
2017-11-09T05:16:55.748Z,96.90
2017-11-09T05:19:22.172Z,97.20
2017-11-09T05:21:48.612Z,97.00
2017-11-09T05:24:15.040Z,96.60
2017-11-09T05:26:41.443Z,96.50
2017-11-09T05:29:07.869Z,96.70
2017-11-09T05:31:34.542Z,97.60
2017-11-09T05:34:01.040Z,96.70
2017-11-09T05:36:27.448Z,97.10
2017-11-09T05:38:53.860Z,96.90
2017-11-09T05:41:20.302Z,97.60
2017-11-09T05:43:46.747Z,97.40
2017-11-09T05:46:13.179Z,97.40
2017-11-09T05:48:39.640Z,97.20
2017-11-09T05:51:06.053Z,97.20
2017-11-09T05:53:32.586Z,96.80
2017-11-09T05:55:59.049Z,97.10
2017-11-09T05:58:25.474Z,96.80
2017-11-09T06:00:51.960Z,97.10
2017-11-09T06:03:18.397Z,97.10
2017-11-09T06:05:44.827Z,96.90
2017-11-09T06:08:11.269Z,96.50
2017-11-09T06:10:37.702Z,97.00
2017-11-09T06:13:04.143Z,97.00
2017-11-09T06:15:30.628Z,96.80
2017-11-09T06:17:57.821Z,96.90
2017-11-09T06:20:24.288Z,96.90
2017-11-09T06:22:50.696Z,96.60
2017-11-09T06:25:17.122Z,96.60
2017-11-09T06:27:43.528Z,96.60
2017-11-09T06:30:09.990Z,96.30
2017-11-09T06:32:36.403Z,96.70
2017-11-09T06:35:02.858Z,96.40
2017-11-09T06:37:29.287Z,96.30
2017-11-09T06:39:55.738Z,96.40
2017-11-09T06:42:22.154Z,97.00
2017-11-09T06:44:48.648Z,96.80
2017-11-09T06:47:15.796Z,96.30
2017-11-09T06:49:42.952Z,96.30
2017-11-09T06:52:09.389Z,96.30
2017-11-09T06:54:35.781Z,96.60
2017-11-09T06:57:02.966Z,96.30
2017-11-09T06:59:30.124Z,96.50
2017-11-09T07:01:56.533Z,96.50
2017-11-09T07:04:23.698Z,96.60
2017-11-09T07:06:50.872Z,96.00
2017-11-09T07:09:17.319Z,96.00
2017-11-09T07:11:43.744Z,96.40
2017-11-09T07:14:10.217Z,96.30
2017-11-09T07:16:36.645Z,96.20
2017-11-09T07:19:03.081Z,96.10
2017-11-09T07:21:29.546Z,95.90
2017-11-09T07:23:56.694Z,96.50
2017-11-09T07:26:23.852Z,96.20
2017-11-09T07:28:50.305Z,96.20
2017-11-09T07:31:16.730Z,96.50
2017-11-09T07:33:43.201Z,96.30
2017-11-09T07:36:09.633Z,96.50
2017-11-09T07:38:36.053Z,96.10
2017-11-09T07:41:02.524Z,96.40
2017-11-09T07:43:28.965Z,96.80
2017-11-09T07:45:55.394Z,96.80
2017-11-09T07:48:21.818Z,96.90
2017-11-09T07:50:48.255Z,95.90
2017-11-09T07:53:14.673Z,95.90
2017-11-09T07:55:41.084Z,95.90
2017-11-09T07:58:07.516Z,95.80
2017-11-09T08:00:33.941Z,95.60
2017-11-09T08:03:00.373Z,95.90
2017-11-09T08:05:26.785Z,95.70
2017-11-09T08:07:53.190Z,96.10
2017-11-09T08:10:20.425Z,96.70
2017-11-09T08:12:46.837Z,96.60
2017-11-09T08:15:13.274Z,96.60
2017-11-09T08:17:39.689Z,95.70
2017-11-09T08:20:06.186Z,95.40
2017-11-09T08:22:33.364Z,95.70
2017-11-09T08:25:02.611Z,95.70
2017-11-09T08:27:29.916Z,95.90
2017-11-09T08:29:57.080Z,96.00
2017-11-09T08:32:25.519Z,95.80
2017-11-09T08:34:52.695Z,95.70
2017-11-09T08:37:19.103Z,95.70
2017-11-09T08:39:46.269Z,95.70
2017-11-09T08:42:12.708Z,95.70
2017-11-09T08:44:39.238Z,95.70
2017-11-09T08:47:05.696Z,95.50
2017-11-09T08:49:32.169Z,95.30
2017-11-09T08:51:58.581Z,94.50
2017-11-09T08:54:24.993Z,94.80
2017-11-09T08:56:51.422Z,94.50
2017-11-09T08:59:17.861Z,94.30
2017-11-09T09:01:44.301Z,93.90
2017-11-09T09:04:10.704Z,93.90
2017-11-09T09:06:37.153Z,93.50
2017-11-09T09:09:03.629Z,93.20
2017-11-09T09:11:30.129Z,93.80
2017-11-09T09:13:56.594Z,93.70
2017-11-09T09:16:23.040Z,94.20
2017-11-09T09:18:49.509Z,94.20
2017-11-09T09:21:21.981Z,93.80
2017-11-09T09:23:48.489Z,93.40
2017-11-09T09:26:24.864Z,93.10
2017-11-09T09:28:54.886Z,92.60
2017-11-09T09:31:22.081Z,92.90
2017-11-09T09:33:53.464Z,92.90
2017-11-09T09:36:20.718Z,93.00
2017-11-09T09:38:49.845Z,92.50
2017-11-09T09:41:17.020Z,91.80
2017-11-09T09:43:43.601Z,91.70
2017-11-09T09:46:10.048Z,91.70
2017-11-09T09:48:37.273Z,92.10
2017-11-09T09:51:03.968Z,92.10
2017-11-09T09:53:30.357Z,91.90
2017-11-09T09:55:56.756Z,91.40
2017-11-09T09:58:23.190Z,92.10
2017-11-09T10:00:49.613Z,92.30
2017-11-09T10:03:16.041Z,91.80
2017-11-09T10:05:42.465Z,92.40
2017-11-09T10:08:08.934Z,92.50
2017-11-09T10:10:35.437Z,92.70
2017-11-09T10:13:01.874Z,91.80
2017-11-09T10:15:28.302Z,91.60
2017-11-09T10:17:54.705Z,90.70
2017-11-09T10:20:21.915Z,91.30
2017-11-09T10:22:48.321Z,91.30
2017-11-09T10:25:14.744Z,91.50
2017-11-09T10:27:41.155Z,91.40
2017-11-09T10:30:08.337Z,90.20
2017-11-09T10:32:34.785Z,90.20
2017-11-09T10:35:04.145Z,90.10
2017-11-09T10:37:31.290Z,88.60
2017-11-09T10:39:58.464Z,85.70
2017-11-09T10:42:24.921Z,85.50
2017-11-09T10:44:51.364Z,82.90
2017-11-09T10:47:17.839Z,85.20
2017-11-09T10:49:45.032Z,84.70
2017-11-09T10:52:11.521Z,84.60
2017-11-09T10:54:37.943Z,85.60
2017-11-09T10:57:04.384Z,83.10
2017-11-09T10:59:31.568Z,78.60
2017-11-09T11:01:57.985Z,78.00
2017-11-09T11:04:24.408Z,74.70
2017-11-09T11:06:50.824Z,75.00
2017-11-09T11:09:17.360Z,72.80
2017-11-09T11:11:43.744Z,71.00
2017-11-09T11:14:10.128Z,73.50
2017-11-09T11:16:36.552Z,72.60
2017-11-09T11:19:02.950Z,68.00
2017-11-09T11:21:29.380Z,61.20
2017-11-09T11:23:55.780Z,54.10
2017-11-09T11:26:22.917Z,52.80
2017-11-09T11:28:50.067Z,53.80
2017-11-09T11:31:17.229Z,56.30
2017-11-09T11:33:44.408Z,56.60
2017-11-09T11:36:10.803Z,56.60
2017-11-09T11:38:37.944Z,59.00
2017-11-09T11:41:04.358Z,58.40
2017-11-09T11:43:30.789Z,59.20
2017-11-09T11:45:57.250Z,62.80
2017-11-09T11:48:23.673Z,64.90
2017-11-09T11:50:50.076Z,67.30
2017-11-09T11:53:16.501Z,69.70
2017-11-09T11:55:42.908Z,66.70
2017-11-09T11:58:09.351Z,68.10
2017-11-09T12:00:35.778Z,68.20
2017-11-09T12:03:02.169Z,69.70
2017-11-09T12:05:28.587Z,69.70
2017-11-09T12:07:55.032Z,71.30
2017-11-09T12:10:22.300Z,73.90
2017-11-09T12:12:49.468Z,73.00
2017-11-09T12:15:15.896Z,73.00
2017-11-09T12:17:42.333Z,73.80
2017-11-09T12:20:08.725Z,73.30
2017-11-09T12:22:35.156Z,71.20
2017-11-09T12:25:01.582Z,72.80
2017-11-09T12:27:27.993Z,73.60
2017-11-09T12:29:54.426Z,74.10
2017-11-09T12:32:20.836Z,77.20
2017-11-09T12:34:47.285Z,75.50
2017-11-09T12:37:13.825Z,76.50
2017-11-09T12:39:40.236Z,74.70
2017-11-09T12:42:06.776Z,76.30
2017-11-09T12:44:33.233Z,76.10
2017-11-09T12:46:59.702Z,76.40
2017-11-09T12:49:26.126Z,78.40
2017-11-09T12:51:52.650Z,78.60
2017-11-09T12:54:19.052Z,77.90
2017-11-09T12:56:45.472Z,75.20
2017-11-09T12:59:11.893Z,76.40
2017-11-09T13:01:38.337Z,78.60
2017-11-09T13:04:04.793Z,79.30
2017-11-09T13:06:31.242Z,79.20
2017-11-09T13:08:57.690Z,80.20
2017-11-09T13:11:24.138Z,80.60
2017-11-09T13:13:51.378Z,83.00
2017-11-09T13:16:17.808Z,82.90
2017-11-09T13:18:44.241Z,83.00
2017-11-09T13:21:10.713Z,83.70
2017-11-09T13:23:37.897Z,85.30
2017-11-09T13:26:04.325Z,85.30
2017-11-09T13:28:30.763Z,85.40
2017-11-09T13:30:57.344Z,86.00
2017-11-09T13:33:23.740Z,87.60
2017-11-09T13:35:50.154Z,88.30
2017-11-09T13:38:16.595Z,88.10
2017-11-09T13:40:43.024Z,90.30
2017-11-09T13:43:10.309Z,90.10
2017-11-09T13:45:40.705Z,88.60
2017-11-09T13:48:07.124Z,87.70
2017-11-09T13:50:33.550Z,88.70
2017-11-09T13:52:59.965Z,88.70
2017-11-09T13:55:27.146Z,86.60
2017-11-09T13:57:53.598Z,86.50
2017-11-09T14:00:20.026Z,88.50
2017-11-09T14:02:46.442Z,88.10
2017-11-09T14:05:14.705Z,90.00
2017-11-09T14:07:41.093Z,89.50
2017-11-09T14:10:14.537Z,87.50
2017-11-09T14:12:40.994Z,85.70
2017-11-09T14:15:07.417Z,87.60
2017-11-09T14:17:33.860Z,88.40
2017-11-09T14:20:00.276Z,87.40
2017-11-09T14:22:26.709Z,88.60
2017-11-09T14:24:53.138Z,88.70
2017-11-09T14:27:19.622Z,88.30
2017-11-09T14:29:46.068Z,89.60
2017-11-09T14:32:12.501Z,89.10
2017-11-09T14:34:38.944Z,89.20
2017-11-09T14:37:05.359Z,89.20
2017-11-09T14:39:31.801Z,87.70
2017-11-09T14:41:58.233Z,88.20
2017-11-09T14:44:24.632Z,87.30
2017-11-09T14:46:51.064Z,89.00
2017-11-09T14:49:17.496Z,87.70
2017-11-09T14:51:43.919Z,87.10
2017-11-09T14:54:10.322Z,88.00
2017-11-09T14:56:37.492Z,88.40
2017-11-09T14:59:03.900Z,88.30
2017-11-09T15:01:31.057Z,88.00
2017-11-09T15:03:57.480Z,88.00
2017-11-09T15:06:24.659Z,87.90
2017-11-09T15:08:51.085Z,87.90
2017-11-09T15:11:17.518Z,88.20
2017-11-09T15:13:43.941Z,88.70
2017-11-09T15:16:10.349Z,88.60
2017-11-09T15:18:36.789Z,89.10
2017-11-09T15:21:03.943Z,88.10
2017-11-09T15:23:31.297Z,87.10
2017-11-09T15:26:02.311Z,88.20
2017-11-09T15:28:28.745Z,88.20
2017-11-09T15:30:55.220Z,88.00
2017-11-09T15:33:21.698Z,87.90
2017-11-09T15:35:52.986Z,89.30
2017-11-09T15:38:20.148Z,89.00
2017-11-09T15:40:46.553Z,88.90
2017-11-09T15:43:13.008Z,89.30
2017-11-09T15:45:40.189Z,88.30
2017-11-09T15:48:06.633Z,88.30
2017-11-09T15:50:33.044Z,90.10
2017-11-09T15:52:59.464Z,90.20
2017-11-09T15:55:25.869Z,87.80
2017-11-09T15:57:52.296Z,87.30
2017-11-09T16:00:18.752Z,88.40
2017-11-09T16:02:45.941Z,89.90
2017-11-09T16:05:12.353Z,89.90
2017-11-09T16:07:38.802Z,89.00
2017-11-09T16:10:05.208Z,88.60
2017-11-09T16:12:32.347Z,89.80
2017-11-09T16:14:59.522Z,90.40
2017-11-09T16:17:26.047Z,90.40
2017-11-09T16:19:52.463Z,90.60
2017-11-09T16:22:18.884Z,90.80
2017-11-09T16:24:45.349Z,91.00
2017-11-09T16:27:11.748Z,91.30
2017-11-09T16:29:38.172Z,91.20
2017-11-09T16:32:04.609Z,91.30
2017-11-09T16:34:31.038Z,91.50
2017-11-09T16:36:57.480Z,91.60
2017-11-09T16:39:23.914Z,91.60
2017-11-09T16:41:50.326Z,91.60
2017-11-09T16:44:16.748Z,91.60
2017-11-09T16:46:43.154Z,91.70
2017-11-09T16:49:09.601Z,91.80
2017-11-09T16:51:35.991Z,91.90
2017-11-09T16:54:02.412Z,92.10
2017-11-09T16:56:28.861Z,91.80
2017-11-09T16:58:55.288Z,92.00
2017-11-09T17:01:22.441Z,92.20
2017-11-09T17:03:49.569Z,92.30
2017-11-09T17:06:16.033Z,92.20
2017-11-09T17:08:43.197Z,92.10
2017-11-09T17:11:09.708Z,92.10
2017-11-09T17:13:36.909Z,92.10
2017-11-09T17:16:03.342Z,92.10
2017-11-09T17:18:33.702Z,92.20
2017-11-09T17:21:00.959Z,92.50
2017-11-09T17:23:27.367Z,92.40
2017-11-09T17:25:53.780Z,92.40
2017-11-09T17:28:20.366Z,92.60
2017-11-09T17:30:47.608Z,92.80
2017-11-09T17:33:14.004Z,92.70
2017-11-09T17:35:40.432Z,92.80
2017-11-09T17:38:06.855Z,92.70
2017-11-09T17:40:33.349Z,92.70
2017-11-09T17:43:00.480Z,93.20
2017-11-09T17:45:26.891Z,93.00
2017-11-09T17:47:53.327Z,93.00
2017-11-09T17:50:20.616Z,93.40
2017-11-09T17:52:48.983Z,93.10
2017-11-09T17:55:15.436Z,93.60
2017-11-09T17:57:42.141Z,93.30
2017-11-09T18:00:14.785Z,93.00
2017-11-09T18:02:41.280Z,93.20
2017-11-09T18:05:08.018Z,93.20
2017-11-09T18:07:34.494Z,93.10
2017-11-09T18:10:00.981Z,93.20
2017-11-09T18:12:27.409Z,93.10
2017-11-09T18:14:54.344Z,92.90
2017-11-09T18:17:20.840Z,93.00
2017-11-09T18:19:47.628Z,92.90
2017-11-09T18:22:17.926Z,93.20
2017-11-09T18:24:45.134Z,93.20
2017-11-09T18:27:12.529Z,93.00
2017-11-09T18:29:39.154Z,92.90
2017-11-09T18:32:05.595Z,93.10
2017-11-09T18:34:32.025Z,93.30
2017-11-09T18:36:58.490Z,93.20
2017-11-09T18:39:25.668Z,93.70
2017-11-09T18:41:52.826Z,93.80
2017-11-09T18:44:20.000Z,93.90
2017-11-09T18:46:46.412Z,93.90
2017-11-09T18:49:13.121Z,93.80
2017-11-09T18:51:39.770Z,93.80
2017-11-09T18:54:06.940Z,93.90
2017-11-09T18:56:33.408Z,93.50
2017-11-09T18:59:01.950Z,93.60
2017-11-09T19:01:28.437Z,93.70
2017-11-09T19:03:54.873Z,93.80
2017-11-09T19:06:21.384Z,93.40
2017-11-09T19:08:47.788Z,93.40
2017-11-09T19:11:15.461Z,93.60
2017-11-09T19:13:42.029Z,93.60
2017-11-09T19:16:08.834Z,93.50
2017-11-09T19:18:35.280Z,93.60
2017-11-09T19:21:02.636Z,93.60
2017-11-09T19:23:29.264Z,93.60
2017-11-09T19:25:55.890Z,93.80
2017-11-09T19:28:22.349Z,94.00
2017-11-09T19:30:48.805Z,93.90
2017-11-09T19:33:15.294Z,93.90
2017-11-09T19:35:46.903Z,93.90
2017-11-09T19:38:14.168Z,93.90
2017-11-09T19:40:41.705Z,93.80
2017-11-09T19:43:08.181Z,93.70
2017-11-09T19:45:34.622Z,93.50
2017-11-09T19:48:01.801Z,93.90
2017-11-09T19:50:28.281Z,94.30
2017-11-09T19:52:55.013Z,93.90
2017-11-09T19:55:21.549Z,94.00
2017-11-09T19:57:47.982Z,93.90
2017-11-09T20:00:14.765Z,93.90
2017-11-09T20:02:41.316Z,93.90
2017-11-09T20:05:07.785Z,93.90
2017-11-09T20:07:34.216Z,93.90
2017-11-09T20:10:00.677Z,93.90
2017-11-09T20:12:27.088Z,93.50
2017-11-09T20:14:53.530Z,93.50
2017-11-09T20:17:20.005Z,93.60
2017-11-09T20:19:46.479Z,93.70
2017-11-09T20:22:13.113Z,93.90
2017-11-09T20:24:39.616Z,93.90
2017-11-09T20:27:06.135Z,94.00
2017-11-09T20:29:33.548Z,93.90
2017-11-09T20:32:00.481Z,93.90
2017-11-09T20:34:27.841Z,94.00
2017-11-09T20:36:55.915Z,94.00
2017-11-09T20:39:22.610Z,93.90
2017-11-09T20:41:49.177Z,93.90
2017-11-09T20:44:15.817Z,93.70
2017-11-09T20:46:42.341Z,93.60
2017-11-09T20:49:09.598Z,93.40
2017-11-09T20:51:36.213Z,93.40
2017-11-09T20:54:02.850Z,93.40
2017-11-09T20:56:29.328Z,93.40
2017-11-09T20:58:55.726Z,93.50
2017-11-09T21:01:22.202Z,93.90
2017-11-09T21:03:48.665Z,94.00
2017-11-09T21:06:15.173Z,94.30
2017-11-09T21:08:42.376Z,94.10
2017-11-09T21:11:08.893Z,94.10
2017-11-09T21:13:35.429Z,94.30
2017-11-09T21:16:02.688Z,94.20
2017-11-09T21:18:29.965Z,94.50
2017-11-09T21:20:57.260Z,94.40
2017-11-09T21:23:23.809Z,94.40
2017-11-09T21:25:50.446Z,94.40
2017-11-09T21:28:17.628Z,94.80
2017-11-09T21:30:44.277Z,94.70
2017-11-09T21:33:10.722Z,94.70
2017-11-09T21:35:38.181Z,94.80
2017-11-09T21:38:05.502Z,94.80
2017-11-09T21:40:33.982Z,94.80
2017-11-09T21:43:02.116Z,94.70
2017-11-09T21:45:29.819Z,95.00
2017-11-09T21:47:58.747Z,94.40
2017-11-09T21:50:27.938Z,94.40
2017-11-09T21:52:56.541Z,94.50
2017-11-09T21:55:26.419Z,94.60
2017-11-09T21:57:55.900Z,94.70
2017-11-09T22:00:24.191Z,94.50
2017-11-09T22:02:51.593Z,94.50
2017-11-09T22:05:19.311Z,94.60
2017-11-09T22:07:46.454Z,94.70
2017-11-09T22:10:13.281Z,94.90
2017-11-09T22:12:40.681Z,94.90
2017-11-09T22:15:07.716Z,94.90
2017-11-09T22:17:34.250Z,94.90
2017-11-09T22:20:00.893Z,95.20
2017-11-09T22:22:27.768Z,95.00
2017-11-09T22:24:54.563Z,94.90
2017-11-09T22:27:22.033Z,94.80
2017-11-09T22:29:48.841Z,94.70
2017-11-09T22:32:15.337Z,94.70
2017-11-09T22:34:41.768Z,94.50
2017-11-09T22:37:08.176Z,94.40
2017-11-09T22:39:34.656Z,94.40
2017-11-09T22:42:01.349Z,94.30
2017-11-09T22:44:27.769Z,94.40
2017-11-09T22:46:54.594Z,94.50
2017-11-09T22:49:21.214Z,94.70
2017-11-09T22:51:47.663Z,94.60
2017-11-09T22:54:14.839Z,94.60
2017-11-09T22:56:41.241Z,94.60
2017-11-09T22:59:08.401Z,94.80
2017-11-09T23:01:35.609Z,94.70
2017-11-09T23:04:02.062Z,94.70
2017-11-09T23:06:28.457Z,94.60
2017-11-09T23:08:54.877Z,94.60
2017-11-09T23:11:21.393Z,94.70
2017-11-09T23:13:47.870Z,94.80
2017-11-09T23:16:14.272Z,94.60
2017-11-09T23:18:40.713Z,94.70
2017-11-09T23:21:07.212Z,94.80
2017-11-09T23:23:34.370Z,94.80
2017-11-09T23:26:00.809Z,94.80
2017-11-09T23:28:27.209Z,94.70
2017-11-09T23:30:53.745Z,94.60
2017-11-09T23:33:21.116Z,94.50
2017-11-09T23:35:48.288Z,94.30
2017-11-09T23:38:14.705Z,94.30
2017-11-09T23:40:41.961Z,94.50
2017-11-09T23:43:09.150Z,94.90
2017-11-09T23:45:35.585Z,94.90
2017-11-09T23:48:01.997Z,94.90
2017-11-09T23:50:28.595Z,94.80
2017-11-09T23:52:55.016Z,94.80
2017-11-09T23:55:21.445Z,94.40
2017-11-09T23:57:47.909Z,94.70
